sensor_id;sensor_type;location;lat;lon;timestamp;P1;durP1;ratioP1;P2;durP2;ratioP2
11300;SDS011;5706;50.650;13.380;2022-08-01T02:50:22;7.13;;;6.53;;
11300;SDS011;5706;50.650;13.380;2022-08-01T02:52:52;7.00;;;6.50;;
11300;SDS011;5706;50.650;13.380;2022-08-01T02:55:23;7.53;;;6.93;;
11300;SDS011;5706;50.650;13.380;2022-08-01T02:57:52;7.80;;;7.10;;
11300;SDS011;5706;50.650;13.380;2022-08-01T03:00:22;7.90;;;7.20;;
11300;SDS011;5706;50.650;13.380;2022-08-01T03:02:53;7.43;;;6.73;;
11300;SDS011;5706;50.650;13.380;2022-08-01T03:05:25;8.13;;;7.43;;
11300;SDS011;5706;50.650;13.380;2022-08-01T03:07:53;7.70;;;7.00;;
11300;SDS011;5706;50.650;13.380;2022-08-01T03:10:23;6.97;;;6.47;;
11300;SDS011;5706;50.650;13.380;2022-08-01T03:12:54;6.90;;;6.40;;
11300;SDS011;5706;50.650;13.380;2022-08-01T03:15:26;7.97;;;7.30;;
11300;SDS011;5706;50.650;13.380;2022-08-01T03:18:01;8.03;;;7.33;;
11300;SDS011;5706;50.650;13.380;2022-08-01T03:20:33;7.67;;;6.97;;
11300;SDS011;5706;50.650;13.380;2022-08-01T03:23:03;8.27;;;7.57;;
11300;SDS011;5706;50.650;13.380;2022-08-01T03:25:35;7.27;;;6.70;;
11300;SDS011;5706;50.650;13.380;2022-08-01T03:28:07;7.33;;;6.57;;
11300;SDS011;5706;50.650;13.380;2022-08-01T03:30:38;6.87;;;6.37;;
11300;SDS011;5706;50.650;13.380;2022-08-01T03:33:10;6.93;;;6.33;;
11300;SDS011;5706;50.650;13.380;2022-08-01T03:35:39;6.87;;;6.17;;
11300;SDS011;5706;50.650;13.380;2022-08-01T03:38:15;6.90;;;6.30;;
11300;SDS011;5706;50.650;13.380;2022-08-01T03:40:49;6.80;;;6.30;;
11300;SDS011;5706;50.650;13.380;2022-08-01T03:43:25;7.27;;;6.57;;
11300;SDS011;5706;50.650;13.380;2022-08-01T03:46:01;7.93;;;7.20;;
11300;SDS011;5706;50.650;13.380;2022-08-01T03:48:39;6.33;;;5.93;;
11300;SDS011;5706;50.650;13.380;2022-08-01T03:51:13;6.43;;;5.93;;
11300;SDS011;5706;50.650;13.380;2022-08-01T03:53:42;7.47;;;6.10;;
11300;SDS011;5706;50.650;13.380;2022-08-01T03:56:16;7.03;;;6.53;;
11300;SDS011;5706;50.650;13.380;2022-08-01T03:58:46;7.10;;;6.50;;
11300;SDS011;5706;50.650;13.380;2022-08-01T04:01:16;7.27;;;6.57;;
11300;SDS011;5706;50.650;13.380;2022-08-01T04:03:47;7.13;;;6.43;;
11300;SDS011;5706;50.650;13.380;2022-08-01T04:06:15;6.77;;;6.23;;
11300;SDS011;5706;50.650;13.380;2022-08-01T04:08:42;7.20;;;6.50;;
11300;SDS011;5706;50.650;13.380;2022-08-01T04:11:20;7.57;;;6.97;;
11300;SDS011;5706;50.650;13.380;2022-08-01T04:13:50;7.50;;;6.57;;
11300;SDS011;5706;50.650;13.380;2022-08-01T04:16:19;7.40;;;6.80;;
11300;SDS011;5706;50.650;13.380;2022-08-01T04:18:48;9.20;;;6.73;;
11300;SDS011;5706;50.650;13.380;2022-08-01T04:21:17;7.00;;;6.50;;
11300;SDS011;5706;50.650;13.380;2022-08-01T04:23:49;6.33;;;5.83;;
11300;SDS011;5706;50.650;13.380;2022-08-01T04:26:19;6.30;;;5.80;;
11300;SDS011;5706;50.650;13.380;2022-08-01T04:28:49;6.53;;;5.90;;
11300;SDS011;5706;50.650;13.380;2022-08-01T04:31:19;6.20;;;5.60;;
11300;SDS011;5706;50.650;13.380;2022-08-01T04:33:53;6.77;;;6.20;;
11300;SDS011;5706;50.650;13.380;2022-08-01T04:36:23;6.47;;;5.87;;
11300;SDS011;5706;50.650;13.380;2022-08-01T04:38:55;6.13;;;5.63;;
11300;SDS011;5706;50.650;13.380;2022-08-01T04:41:29;6.97;;;6.27;;
11300;SDS011;5706;50.650;13.380;2022-08-01T04:43:58;6.57;;;5.90;;
11300;SDS011;5706;50.650;13.380;2022-08-01T04:46:28;6.90;;;6.30;;
11300;SDS011;5706;50.650;13.380;2022-08-01T04:48:58;6.03;;;5.53;;
11300;SDS011;5706;50.650;13.380;2022-08-01T04:51:28;6.80;;;6.10;;
11300;SDS011;5706;50.650;13.380;2022-08-01T04:53:56;6.70;;;6.07;;
11300;SDS011;5706;50.650;13.380;2022-08-01T04:56:24;7.20;;;6.23;;
11300;SDS011;5706;50.650;13.380;2022-08-01T04:58:51;6.70;;;6.10;;
11300;SDS011;5706;50.650;13.380;2022-08-01T05:01:33;6.37;;;5.80;;
11300;SDS011;5706;50.650;13.380;2022-08-01T05:04:02;6.20;;;5.70;;
11300;SDS011;5706;50.650;13.380;2022-08-01T05:06:30;6.43;;;5.73;;
11300;SDS011;5706;50.650;13.380;2022-08-01T05:08:58;5.97;;;5.40;;
11300;SDS011;5706;50.650;13.380;2022-08-01T05:11:26;6.80;;;6.10;;
11300;SDS011;5706;50.650;13.380;2022-08-01T05:13:54;5.80;;;5.33;;
11300;SDS011;5706;50.650;13.380;2022-08-01T05:16:21;7.90;;;6.00;;
11300;SDS011;5706;50.650;13.380;2022-08-01T05:18:49;6.47;;;5.97;;
11300;SDS011;5706;50.650;13.380;2022-08-01T05:21:18;6.57;;;6.07;;
11300;SDS011;5706;50.650;13.380;2022-08-01T05:23:46;6.37;;;5.87;;
11300;SDS011;5706;50.650;13.380;2022-08-01T05:26:14;6.63;;;6.13;;
11300;SDS011;5706;50.650;13.380;2022-08-01T05:28:42;7.20;;;6.53;;
11300;SDS011;5706;50.650;13.380;2022-08-01T05:31:09;6.43;;;5.93;;
11300;SDS011;5706;50.650;13.380;2022-08-01T05:33:37;6.47;;;5.93;;
11300;SDS011;5706;50.650;13.380;2022-08-01T05:36:05;6.10;;;5.60;;
11300;SDS011;5706;50.650;13.380;2022-08-01T05:38:34;6.37;;;5.87;;
11300;SDS011;5706;50.650;13.380;2022-08-01T05:41:02;6.37;;;5.97;;
11300;SDS011;5706;50.650;13.380;2022-08-01T05:43:30;6.43;;;5.93;;
11300;SDS011;5706;50.650;13.380;2022-08-01T05:45:57;7.10;;;6.40;;
11300;SDS011;5706;50.650;13.380;2022-08-01T05:48:26;7.23;;;6.60;;
11300;SDS011;5706;50.650;13.380;2022-08-01T05:50:53;7.07;;;6.47;;
11300;SDS011;5706;50.650;13.380;2022-08-01T05:53:21;6.60;;;6.00;;
11300;SDS011;5706;50.650;13.380;2022-08-01T05:55:50;7.00;;;6.40;;
11300;SDS011;5706;50.650;13.380;2022-08-01T05:58:18;6.93;;;6.33;;
11300;SDS011;5706;50.650;13.380;2022-08-01T06:00:46;7.20;;;6.57;;
11300;SDS011;5706;50.650;13.380;2022-08-01T06:03:13;6.90;;;6.30;;
11300;SDS011;5706;50.650;13.380;2022-08-01T06:05:41;7.23;;;6.53;;
11300;SDS011;5706;50.650;13.380;2022-08-01T06:08:09;7.60;;;7.00;;
11300;SDS011;5706;50.650;13.380;2022-08-01T06:10:36;7.63;;;6.80;;
11300;SDS011;5706;50.650;13.380;2022-08-01T06:13:06;6.77;;;6.17;;
11300;SDS011;5706;50.650;13.380;2022-08-01T06:15:33;7.63;;;6.83;;
11300;SDS011;5706;50.650;13.380;2022-08-01T06:18:01;7.53;;;6.93;;
11300;SDS011;5706;50.650;13.380;2022-08-01T06:20:30;7.07;;;6.40;;
11300;SDS011;5706;50.650;13.380;2022-08-01T06:22:57;6.97;;;6.30;;
11300;SDS011;5706;50.650;13.380;2022-08-01T06:25:25;7.47;;;6.87;;
11300;SDS011;5706;50.650;13.380;2022-08-01T06:27:53;7.53;;;6.93;;
11300;SDS011;5706;50.650;13.380;2022-08-01T06:30:22;6.80;;;6.20;;
11300;SDS011;5706;50.650;13.380;2022-08-01T06:32:50;7.30;;;6.80;;
11300;SDS011;5706;50.650;13.380;2022-08-01T06:35:21;6.73;;;6.23;;
11300;SDS011;5706;50.650;13.380;2022-08-01T06:37:49;6.93;;;6.33;;
11300;SDS011;5706;50.650;13.380;2022-08-01T06:40:17;7.43;;;6.93;;
11300;SDS011;5706;50.650;13.380;2022-08-01T06:42:45;6.93;;;6.33;;
11300;SDS011;5706;50.650;13.380;2022-08-01T06:45:13;6.90;;;6.30;;
11300;SDS011;5706;50.650;13.380;2022-08-01T06:47:43;6.53;;;5.90;;
11300;SDS011;5706;50.650;13.380;2022-08-01T06:50:12;7.33;;;6.63;;
11300;SDS011;5706;50.650;13.380;2022-08-01T06:52:40;7.83;;;7.13;;
11300;SDS011;5706;50.650;13.380;2022-08-01T06:55:08;7.13;;;6.50;;
11300;SDS011;5706;50.650;13.380;2022-08-01T06:57:36;6.80;;;6.30;;
11300;SDS011;5706;50.650;13.380;2022-08-01T07:00:13;6.30;;;5.80;;
11300;SDS011;5706;50.650;13.380;2022-08-01T07:02:45;6.77;;;5.90;;
11300;SDS011;5706;50.650;13.380;2022-08-01T07:05:13;6.47;;;4.83;;
11300;SDS011;5706;50.650;13.380;2022-08-01T07:07:40;5.23;;;4.83;;
11300;SDS011;5706;50.650;13.380;2022-08-01T07:10:08;5.20;;;4.70;;
11300;SDS011;5706;50.650;13.380;2022-08-01T07:12:38;4.57;;;4.20;;
11300;SDS011;5706;50.650;13.380;2022-08-01T07:15:07;5.03;;;4.63;;
11300;SDS011;5706;50.650;13.380;2022-08-01T07:20:10;5.13;;;4.40;;
11300;SDS011;5706;50.650;13.380;2022-08-01T07:22:40;5.07;;;4.57;;
11300;SDS011;5706;50.650;13.380;2022-08-01T07:25:07;4.77;;;4.37;;
11300;SDS011;5706;50.650;13.380;2022-08-01T07:27:36;4.90;;;4.50;;
11300;SDS011;5706;50.650;13.380;2022-08-01T07:30:04;5.00;;;4.60;;
11300;SDS011;5706;50.650;13.380;2022-08-01T07:32:33;5.60;;;4.47;;
11300;SDS011;5706;50.650;13.380;2022-08-01T07:35:01;4.83;;;4.43;;
11300;SDS011;5706;50.650;13.380;2022-08-01T07:37:31;4.30;;;3.90;;
11300;SDS011;5706;50.650;13.380;2022-08-01T07:39:58;4.10;;;3.80;;
11300;SDS011;5706;50.650;13.380;2022-08-01T07:42:29;4.10;;;3.80;;
11300;SDS011;5706;50.650;13.380;2022-08-01T07:44:56;3.83;;;3.53;;
11300;SDS011;5706;50.650;13.380;2022-08-01T07:47:25;5.30;;;4.03;;
11300;SDS011;5706;50.650;13.380;2022-08-01T07:49:58;4.63;;;4.30;;
11300;SDS011;5706;50.650;13.380;2022-08-01T07:55:23;4.17;;;3.63;;
11300;SDS011;5706;50.650;13.380;2022-08-01T07:57:51;4.30;;;3.70;;
11300;SDS011;5706;50.650;13.380;2022-08-01T08:00:19;3.78;;;3.50;;
11300;SDS011;5706;50.650;13.380;2022-08-01T08:02:47;5.13;;;3.55;;
11300;SDS011;5706;50.650;13.380;2022-08-01T08:05:15;3.45;;;3.15;;
11300;SDS011;5706;50.650;13.380;2022-08-01T08:07:44;3.35;;;3.15;;
11300;SDS011;5706;50.650;13.380;2022-08-01T08:10:12;3.37;;;3.07;;
11300;SDS011;5706;50.650;13.380;2022-08-01T08:12:40;3.40;;;3.10;;
11300;SDS011;5706;50.650;13.380;2022-08-01T08:15:08;3.17;;;2.77;;
11300;SDS011;5706;50.650;13.380;2022-08-01T08:17:36;3.60;;;2.97;;
11300;SDS011;5706;50.650;13.380;2022-08-01T08:20:05;5.87;;;2.93;;
11300;SDS011;5706;50.650;13.380;2022-08-01T08:22:36;2.80;;;2.60;;
11300;SDS011;5706;50.650;13.380;2022-08-01T08:25:06;3.13;;;2.92;;
11300;SDS011;5706;50.650;13.380;2022-08-01T08:27:38;3.17;;;2.97;;
11300;SDS011;5706;50.650;13.380;2022-08-01T08:30:08;3.20;;;2.90;;
11300;SDS011;5706;50.650;13.380;2022-08-01T08:33:10;3.08;;;2.88;;
11300;SDS011;5706;50.650;13.380;2022-08-01T08:35:38;3.40;;;3.15;;
11300;SDS011;5706;50.650;13.380;2022-08-01T08:38:09;4.03;;;3.65;;
11300;SDS011;5706;50.650;13.380;2022-08-01T08:40:38;4.18;;;3.88;;
11300;SDS011;5706;50.650;13.380;2022-08-01T08:43:07;4.28;;;3.90;;
11300;SDS011;5706;50.650;13.380;2022-08-01T08:45:34;4.25;;;3.95;;
11300;SDS011;5706;50.650;13.380;2022-08-01T08:48:03;4.00;;;3.67;;
11300;SDS011;5706;50.650;13.380;2022-08-01T08:50:33;3.77;;;3.53;;
11300;SDS011;5706;50.650;13.380;2022-08-01T08:53:02;3.40;;;3.10;;
11300;SDS011;5706;50.650;13.380;2022-08-01T08:55:30;3.40;;;3.20;;
11300;SDS011;5706;50.650;13.380;2022-08-01T08:58:00;3.00;;;2.80;;
11300;SDS011;5706;50.650;13.380;2022-08-01T09:00:31;3.20;;;3.00;;
11300;SDS011;5706;50.650;13.380;2022-08-01T09:03:01;3.17;;;2.88;;
11300;SDS011;5706;50.650;13.380;2022-08-01T09:05:29;3.03;;;2.80;;
11300;SDS011;5706;50.650;13.380;2022-08-01T09:07:57;3.03;;;2.83;;
11300;SDS011;5706;50.650;13.380;2022-08-01T09:10:25;2.73;;;2.53;;
11300;SDS011;5706;50.650;13.380;2022-08-01T09:13:02;3.03;;;2.83;;
11300;SDS011;5706;50.650;13.380;2022-08-01T09:15:39;3.30;;;3.00;;
11300;SDS011;5706;50.650;13.380;2022-08-01T09:18:24;2.97;;;2.77;;
11300;SDS011;5706;50.650;13.380;2022-08-01T09:21:11;2.55;;;2.20;;
11300;SDS011;5706;50.650;13.380;2022-08-01T09:23:43;2.60;;;2.40;;
11300;SDS011;5706;50.650;13.380;2022-08-01T09:26:14;2.67;;;2.47;;
11300;SDS011;5706;50.650;13.380;2022-08-01T09:28:46;2.47;;;2.27;;
11300;SDS011;5706;50.650;13.380;2022-08-01T09:31:17;2.13;;;2.03;;
11300;SDS011;5706;50.650;13.380;2022-08-01T09:33:46;2.15;;;1.95;;
11300;SDS011;5706;50.650;13.380;2022-08-01T09:39:53;2.05;;;1.75;;
11300;SDS011;5706;50.650;13.380;2022-08-01T09:46:13;1.58;;;1.48;;
11300;SDS011;5706;50.650;13.380;2022-08-01T09:52:36;1.45;;;1.35;;
11300;SDS011;5706;50.650;13.380;2022-08-01T09:55:20;1.40;;;1.30;;
11300;SDS011;5706;50.650;13.380;2022-08-01T09:58:08;1.02;;;1.02;;
11300;SDS011;5706;50.650;13.380;2022-08-01T10:00:41;1.30;;;1.30;;
11300;SDS011;5706;50.650;13.380;2022-08-01T10:03:31;1.40;;;1.30;;
11300;SDS011;5706;50.650;13.380;2022-08-01T10:05:59;1.38;;;1.17;;
11300;SDS011;5706;50.650;13.380;2022-08-01T10:08:45;0.82;;;0.82;;
11300;SDS011;5706;50.650;13.380;2022-08-01T10:11:18;1.02;;;1.02;;
11300;SDS011;5706;50.650;13.380;2022-08-01T10:13:52;1.45;;;0.88;;
11300;SDS011;5706;50.650;13.380;2022-08-01T10:16:46;1.30;;;1.30;;
11300;SDS011;5706;50.650;13.380;2022-08-01T10:24:24;1.08;;;1.02;;
11300;SDS011;5706;50.650;13.380;2022-08-01T10:25:09;1.55;;;1.10;;
11300;SDS011;5706;50.650;13.380;2022-08-01T10:27:42;1.00;;;1.00;;
11300;SDS011;5706;50.650;13.380;2022-08-01T10:30:23;1.10;;;1.10;;
11300;SDS011;5706;50.650;13.380;2022-08-01T10:33:50;1.20;;;1.20;;
11300;SDS011;5706;50.650;13.380;2022-08-01T10:37:23;1.13;;;1.10;;
11300;SDS011;5706;50.650;13.380;2022-08-01T10:40:40;1.70;;;1.27;;
11300;SDS011;5706;50.650;13.380;2022-08-01T10:43:28;0.93;;;0.93;;
11300;SDS011;5706;50.650;13.380;2022-08-01T10:49:37;1.08;;;1.08;;
11300;SDS011;5706;50.650;13.380;2022-08-01T10:53:12;1.10;;;1.10;;
11300;SDS011;5706;50.650;13.380;2022-08-01T10:55:45;1.73;;;1.10;;
11300;SDS011;5706;50.650;13.380;2022-08-01T10:58:38;0.90;;;0.90;;
11300;SDS011;5706;50.650;13.380;2022-08-01T11:01:28;0.85;;;0.82;;
11300;SDS011;5706;50.650;13.380;2022-08-01T11:04:10;0.95;;;0.80;;
11300;SDS011;5706;50.650;13.380;2022-08-01T11:07:06;0.65;;;0.65;;
11300;SDS011;5706;50.650;13.380;2022-08-01T11:10:12;0.60;;;0.60;;
11300;SDS011;5706;50.650;13.380;2022-08-01T11:14:00;0.65;;;0.65;;
11300;SDS011;5706;50.650;13.380;2022-08-01T11:16:56;0.80;;;0.50;;
11300;SDS011;5706;50.650;13.380;2022-08-01T11:20:06;0.60;;;0.60;;
11300;SDS011;5706;50.650;13.380;2022-08-01T11:34:00;0.70;;;0.70;;
11300;SDS011;5706;50.650;13.380;2022-08-01T11:36:29;1.63;;;0.80;;
11300;SDS011;5706;50.650;13.380;2022-08-01T11:39:16;0.70;;;0.70;;
11300;SDS011;5706;50.650;13.380;2022-08-01T11:41:51;1.40;;;1.00;;
11300;SDS011;5706;50.650;13.380;2022-08-01T11:52:17;0.75;;;0.75;;
11300;SDS011;5706;50.650;13.380;2022-08-01T11:55:10;0.57;;;0.57;;
11300;SDS011;5706;50.650;13.380;2022-08-01T11:57:41;0.68;;;0.68;;
11300;SDS011;5706;50.650;13.380;2022-08-01T12:10:00;0.73;;;0.73;;
11300;SDS011;5706;50.650;13.380;2022-08-01T12:13:19;0.60;;;0.60;;
11300;SDS011;5706;50.650;13.380;2022-08-01T12:16:51;0.80;;;0.80;;
11300;SDS011;5706;50.650;13.380;2022-08-01T12:24:00;0.70;;;0.70;;
